Time;durP1;ratioP1;P1;durP2;ratioP2;P2;SDS_P1;SDS_P2;PMS_P1;PMS_P2;Temp;Humidity;BMP_temperature;BMP_pressure;BME280_temperature;BME280_humidity;BME280_pressure;Samples;Min_cycle;Max_cycle;Signal;HPM_P1;HPM_P2
2022/11/22 00:01:55;;;;;;;;;;;19.30;41.60;;;;;;5035304;28;20321;-72
2022/11/22 00:04:21;;;;;;;;;;;19.30;41.70;;;;;;5053275;28;19909;-73
2022/11/22 00:06:46;;;;;;;;;;;19.30;41.60;;;;;;5046107;28;20226;-72
2022/11/22 00:09:12;;;;;;;;;;;19.30;41.80;;;;;;5027499;28;19913;-73
2022/11/22 00:11:37;;;;;;;;;;;19.30;42.50;;;;;;5054298;28;19958;-72
2022/11/22 00:14:02;;;;;;;;;;;19.30;42.20;;;;;;5057484;28;19916;-73
2022/11/22 00:16:28;;;;;;;;;;;19.30;42.20;;;;;;5057028;28;20039;-71
2022/11/22 00:18:53;;;;;;;;;;;19.30;42.50;;;;;;5055089;28;19920;-72
2022/11/22 00:21:19;;;;;;;;;;;19.20;42.50;;;;;;5035370;28;20123;-73
2022/11/22 00:23:44;;;;;;;;;;;19.30;43.10;;;;;;5051966;28;19921;-73
2022/11/22 00:26:10;;;;;;;;;;;19.30;43.10;;;;;;5037090;28;19916;-73
2022/11/22 00:28:37;;;;;;;;;;;19.30;43.00;;;;;;5054662;28;19971;-73
2022/11/22 00:31:03;;;;;;;;;;;19.30;43.00;;;;;;5035740;28;19978;-73
2022/11/22 00:33:28;;;;;;;;;;;19.30;43.10;;;;;;5037478;28;19913;-73
2022/11/22 00:35:54;;;;;;;;;;;19.20;42.80;;;;;;5038094;28;20274;-73
2022/11/22 00:38:19;;;;;;;;;;;19.10;42.90;;;;;;5031932;28;19999;-72
2022/11/22 00:40:44;;;;;;;;;;;19.10;42.90;;;;;;5056222;28;19921;-72
2022/11/22 00:43:10;;;;;;;;;;;19.10;42.30;;;;;;5055744;28;19917;-73
2022/11/22 00:45:39;;;;;;;;;;;19.10;42.50;;;;;;5026191;28;22543;-72
2022/11/22 00:48:04;;;;;;;;;;;19.10;42.20;;;;;;5036442;28;19920;-72
2022/11/22 00:50:30;;;;;;;;;;;19.10;42.80;;;;;;5032404;28;19916;-71
2022/11/22 00:52:55;;;;;;;;;;;19.10;42.90;;;;;;5036636;28;19924;-72
2022/11/22 00:55:21;;;;;;;;;;;19.10;43.10;;;;;;5050772;28;20008;-72
2022/11/22 00:57:46;;;;;;;;;;;19.10;42.90;;;;;;5054631;28;20289;-72
2022/11/22 01:00:12;;;;;;;;;;;19.10;42.90;;;;;;5036307;28;19921;-72
2022/11/22 01:02:37;;;;;;;;;;;19.10;43.20;;;;;;5035439;28;19919;-73
2022/11/22 01:05:03;;;;;;;;;;;19.00;43.00;;;;;;5031728;28;19913;-72
2022/11/22 01:07:28;;;;;;;;;;;19.00;43.20;;;;;;5056959;28;19908;-72
2022/11/22 01:09:54;;;;;;;;;;;19.00;43.30;;;;;;5055866;28;19913;-72
2022/11/22 01:12:19;;;;;;;;;;;19.00;43.20;;;;;;5036634;28;20586;-72
2022/11/22 01:14:45;;;;;;;;;;;19.00;43.00;;;;;;5042508;28;19924;-72
2022/11/22 01:17:10;;;;;;;;;;;19.10;43.00;;;;;;5051630;28;19912;-72
2022/11/22 01:19:36;;;;;;;;;;;19.10;43.00;;;;;;5038479;28;19913;-72
2022/11/22 01:22:01;;;;;;;;;;;19.00;43.00;;;;;;5053271;28;19913;-72
2022/11/22 01:24:27;;;;;;;;;;;19.10;43.10;;;;;;5041320;28;19912;-73
2022/11/22 01:26:52;;;;;;;;;;;19.10;42.80;;;;;;5050760;28;19912;-72
2022/11/22 01:29:17;;;;;;;;;;;19.10;42.00;;;;;;5055026;28;20365;-72
2022/11/22 01:31:43;;;;;;;;;;;19.10;42.20;;;;;;5054488;28;20262;-73
2022/11/22 01:34:08;;;;;;;;;;;19.00;42.00;;;;;;5049685;28;20284;-73
2022/11/22 01:36:34;;;;;;;;;;;19.00;41.90;;;;;;5045463;28;20296;-72
2022/11/22 01:38:59;;;;;;;;;;;19.10;42.30;;;;;;5054640;28;19920;-73
2022/11/22 01:41:25;;;;;;;;;;;19.10;41.90;;;;;;5036713;28;20019;-73
2022/11/22 01:43:50;;;;;;;;;;;19.10;42.50;;;;;;5034305;28;19920;-73
2022/11/22 01:46:23;;;;;;;;;;;19.00;41.90;;;;;;5036201;28;19920;-72
2022/11/22 01:48:50;;;;;;;;;;;19.10;42.10;;;;;;5034465;28;19965;-72
2022/11/22 01:51:17;;;;;;;;;;;19.00;42.70;;;;;;5024505;28;19917;-73
2022/11/22 01:53:43;;;;;;;;;;;19.00;42.80;;;;;;5054571;28;19999;-73
2022/11/22 01:56:10;;;;;;;;;;;18.90;42.90;;;;;;5053225;28;20133;-73
2022/11/22 01:58:36;;;;;;;;;;;18.80;43.20;;;;;;5017952;28;20396;-72
2022/11/22 02:01:01;;;;;;;;;;;18.80;43.00;;;;;;5044492;28;19917;-73
2022/11/22 02:03:27;;;;;;;;;;;18.90;42.90;;;;;;5037146;28;19909;-72
2022/11/22 02:05:52;;;;;;;;;;;18.90;42.40;;;;;;5052353;28;19927;-72
2022/11/22 02:08:23;;;;;;;;;;;18.90;43.40;;;;;;5034892;28;19917;-72
2022/11/22 02:10:49;;;;;;;;;;;18.90;42.80;;;;;;5035356;28;19970;-73
2022/11/22 02:13:14;;;;;;;;;;;18.90;42.70;;;;;;5036008;28;19917;-72
2022/11/22 02:15:40;;;;;;;;;;;18.90;42.80;;;;;;5052289;28;19920;-71
2022/11/22 02:18:06;;;;;;;;;;;18.90;42.90;;;;;;5036176;28;19916;-72
2022/11/22 02:20:31;;;;;;;;;;;18.90;42.90;;;;;;5037009;28;20377;-73
2022/11/22 02:23:00;;;;;;;;;;;18.90;42.90;;;;;;5053942;28;19909;-72
2022/11/22 02:25:34;;;;;;;;;;;18.80;42.90;;;;;;5052802;28;20376;-73
2022/11/22 02:27:59;;;;;;;;;;;18.80;42.90;;;;;;5036652;28;19913;-72
2022/11/22 02:30:25;;;;;;;;;;;18.80;42.50;;;;;;5053870;28;20324;-72
2022/11/22 02:32:50;;;;;;;;;;;18.80;42.90;;;;;;5048313;28;19982;-72
2022/11/22 02:35:34;;;;;;;;;;;18.80;43.00;;;;;;5049856;28;19921;-73
2022/11/22 02:38:13;;;;;;;;;;;18.80;43.00;;;;;;5035051;28;19925;-72
2022/11/22 02:41:08;;;;;;;;;;;18.70;43.10;;;;;;5044513;28;20369;-72
2022/11/22 02:43:37;;;;;;;;;;;18.70;43.10;;;;;;5026362;28;19943;-72
2022/11/22 02:46:03;;;;;;;;;;;18.70;42.80;;;;;;5033731;28;20016;-72
2022/11/22 02:48:29;;;;;;;;;;;18.70;43.10;;;;;;5050133;28;19913;-73
2022/11/22 02:50:54;;;;;;;;;;;18.70;43.00;;;;;;5053306;28;19921;-72
2022/11/22 02:53:20;;;;;;;;;;;18.70;43.00;;;;;;5052649;28;19991;-73
2022/11/22 02:55:45;;;;;;;;;;;18.70;42.90;;;;;;5044466;28;19924;-73
2022/11/22 02:58:11;;;;;;;;;;;18.70;42.90;;;;;;5052488;28;20357;-72
2022/11/22 03:00:37;;;;;;;;;;;18.70;42.90;;;;;;5047022;28;20279;-73
2022/11/22 03:03:02;;;;;;;;;;;18.70;42.90;;;;;;5036380;28;20360;-72
2022/11/22 03:05:28;;;;;;;;;;;18.80;42.90;;;;;;5033688;28;19913;-73
2022/11/22 03:07:53;;;;;;;;;;;18.80;42.60;;;;;;5050755;28;19908;-72
2022/11/22 03:10:19;;;;;;;;;;;18.80;42.70;;;;;;5036080;28;19913;-72
2022/11/22 03:12:44;;;;;;;;;;;18.80;42.50;;;;;;5035254;28;19919;-72
2022/11/22 03:15:10;;;;;;;;;;;18.80;42.30;;;;;;5035889;28;19909;-73
2022/11/22 03:17:35;;;;;;;;;;;18.90;42.40;;;;;;5034618;28;19929;-72
2022/11/22 03:20:01;;;;;;;;;;;18.90;42.30;;;;;;5046881;28;19921;-72
2022/11/22 03:22:26;;;;;;;;;;;18.90;42.40;;;;;;5017744;28;19939;-72
2022/11/22 03:24:51;;;;;;;;;;;18.80;42.30;;;;;;5033673;28;19913;-72
2022/11/22 03:27:17;;;;;;;;;;;18.80;42.40;;;;;;5031285;28;19920;-72
2022/11/22 03:29:42;;;;;;;;;;;18.80;42.40;;;;;;5037947;28;20050;-72
2022/11/22 03:32:08;;;;;;;;;;;18.80;42.50;;;;;;5034355;28;19916;-72
2022/11/22 03:34:33;;;;;;;;;;;18.70;42.40;;;;;;5044306;28;19920;-73
2022/11/22 03:36:59;;;;;;;;;;;18.70;42.50;;;;;;5042571;28;19928;-72
2022/11/22 03:39:24;;;;;;;;;;;18.70;42.50;;;;;;5036980;28;20289;-73
2022/11/22 03:41:50;;;;;;;;;;;18.70;42.60;;;;;;5031091;28;20371;-72
2022/11/22 03:44:15;;;;;;;;;;;18.70;42.60;;;;;;5051935;28;19986;-73
2022/11/22 03:46:40;;;;;;;;;;;18.60;42.60;;;;;;5034911;28;19909;-72
2022/11/22 03:49:06;;;;;;;;;;;18.60;42.70;;;;;;5034624;28;20392;-72
2022/11/22 03:51:31;;;;;;;;;;;18.60;42.70;;;;;;5049983;28;19975;-73
2022/11/22 03:53:57;;;;;;;;;;;18.60;42.60;;;;;;5023009;28;19913;-72
2022/11/22 03:56:22;;;;;;;;;;;18.70;42.70;;;;;;5052001;28;20377;-74
2022/11/22 03:58:48;;;;;;;;;;;18.70;42.60;;;;;;5051074;28;20323;-72
2022/11/22 04:01:13;;;;;;;;;;;18.70;42.60;;;;;;5034013;28;19955;-72
2022/11/22 04:03:39;;;;;;;;;;;18.70;42.50;;;;;;5052169;28;19913;-72
2022/11/22 04:06:04;;;;;;;;;;;18.70;42.40;;;;;;5033038;28;19944;-72
2022/11/22 04:08:29;;;;;;;;;;;18.70;42.20;;;;;;5048253;28;19947;-72
2022/11/22 04:10:55;;;;;;;;;;;18.70;42.20;;;;;;5034009;28;19959;-72
2022/11/22 04:13:20;;;;;;;;;;;18.70;42.20;;;;;;5034719;28;19916;-73
2022/11/22 04:15:46;;;;;;;;;;;18.70;42.30;;;;;;5031055;28;20391;-73
2022/11/22 04:18:11;;;;;;;;;;;18.70;42.30;;;;;;5033629;28;20053;-73
2022/11/22 04:23:21;;;;;;;;;;;18.70;42.30;;;;;;5046017;28;19967;-73
2022/11/22 04:25:47;;;;;;;;;;;18.60;42.40;;;;;;5030075;28;19909;-72
2022/11/22 04:28:13;;;;;;;;;;;18.60;42.30;;;;;;5018067;28;19980;-72
2022/11/22 04:33:23;;;;;;;;;;;18.60;42.40;;;;;;5046290;28;19939;-73
2022/11/22 04:35:48;;;;;;;;;;;18.60;42.50;;;;;;5032989;28;19909;-72
2022/11/22 04:38:14;;;;;;;;;;;18.60;42.50;;;;;;5050355;28;20029;-72
2022/11/22 04:40:39;;;;;;;;;;;18.60;42.50;;;;;;5025150;28;19965;-72
2022/11/22 04:45:49;;;;;;;;;;;18.60;42.40;;;;;;5032104;28;19939;-72
2022/11/22 04:48:14;;;;;;;;;;;18.60;42.40;;;;;;5036166;28;19917;-72
2022/11/22 04:53:24;;;;;;;;;;;18.60;42.30;;;;;;5051930;28;20003;-73
2022/11/22 04:55:49;;;;;;;;;;;18.70;42.20;;;;;;5031610;28;20007;-72
2022/11/22 04:58:15;;;;;;;;;;;18.60;42.20;;;;;;5024874;28;19909;-73
2022/11/22 05:00:40;;;;;;;;;;;18.70;42.20;;;;;;5037762;28;20423;-73
2022/11/22 05:03:06;;;;;;;;;;;18.70;42.20;;;;;;5054191;28;19917;-73
2022/11/22 05:05:35;;;;;;;;;;;18.70;42.20;;;;;;5055260;28;19920;-73
2022/11/22 05:08:00;;;;;;;;;;;18.70;42.10;;;;;;5037654;28;19919;-72
2022/11/22 05:10:26;;;;;;;;;;;18.70;42.00;;;;;;5037677;28;19912;-72
2022/11/22 05:12:51;;;;;;;;;;;18.70;42.20;;;;;;5049325;28;19913;-72
2022/11/22 05:15:17;;;;;;;;;;;18.60;42.10;;;;;;5054687;28;19966;-73
2022/11/22 05:17:42;;;;;;;;;;;18.60;42.10;;;;;;5053643;28;19913;-72
2022/11/22 05:20:08;;;;;;;;;;;18.60;42.20;;;;;;5034542;28;19917;-73
2022/11/22 05:25:18;;;;;;;;;;;18.60;42.20;;;;;;5038928;28;19939;-72
2022/11/22 05:27:43;;;;;;;;;;;18.60;42.30;;;;;;5055653;28;19909;-72
2022/11/22 05:30:09;;;;;;;;;;;18.50;42.20;;;;;;5032852;28;20220;-72
2022/11/22 05:32:34;;;;;;;;;;;18.50;42.20;;;;;;5035075;28;19917;-72
2022/11/22 05:35:00;;;;;;;;;;;18.60;42.30;;;;;;5034393;28;19957;-72
2022/11/22 05:37:25;;;;;;;;;;;18.50;42.20;;;;;;5033217;28;19931;-72
2022/11/22 05:39:51;;;;;;;;;;;18.50;42.20;;;;;;5054468;28;19917;-73
2022/11/22 05:42:16;;;;;;;;;;;18.60;42.20;;;;;;5038064;28;19916;-73
2022/11/22 05:44:42;;;;;;;;;;;18.60;42.20;;;;;;5035570;28;20003;-73
2022/11/22 05:47:08;;;;;;;;;;;18.60;42.10;;;;;;5037210;28;19909;-72
2022/11/22 05:49:34;;;;;;;;;;;18.60;42.00;;;;;;5055186;28;20354;-73
2022/11/22 05:51:59;;;;;;;;;;;18.60;42.10;;;;;;5036072;28;20016;-73
2022/11/22 05:54:24;;;;;;;;;;;18.60;42.00;;;;;;5036874;28;20377;-72
2022/11/22 05:56:50;;;;;;;;;;;18.60;42.00;;;;;;5054283;28;19912;-73
2022/11/22 05:59:15;;;;;;;;;;;18.60;41.90;;;;;;5036583;28;19960;-72
2022/11/22 06:01:41;;;;;;;;;;;18.60;41.80;;;;;;5042934;28;19927;-73
2022/11/22 06:04:06;;;;;;;;;;;18.60;41.90;;;;;;5051817;28;20364;-73
2022/11/22 06:06:32;;;;;;;;;;;18.60;41.90;;;;;;5050550;28;19920;-74
2022/11/22 06:08:57;;;;;;;;;;;18.60;41.80;;;;;;5033592;28;20012;-73
2022/11/22 06:11:24;;;;;;;;;;;18.60;41.90;;;;;;5054008;28;19913;-72
2022/11/22 06:13:50;;;;;;;;;;;18.50;41.90;;;;;;5034501;28;19962;-73
2022/11/22 06:16:16;;;;;;;;;;;18.50;42.00;;;;;;5035949;28;20084;-73
2022/11/22 06:18:41;;;;;;;;;;;18.50;42.00;;;;;;5031735;28;19913;-73
2022/11/22 06:21:09;;;;;;;;;;;18.50;42.00;;;;;;5052523;28;19917;-72
2022/11/22 06:23:34;;;;;;;;;;;18.50;41.90;;;;;;5047513;28;19952;-71
2022/11/22 06:26:13;;;;;;;;;;;18.50;41.90;;;;;;5047196;28;19913;-73
2022/11/22 06:28:39;;;;;;;;;;;18.50;41.80;;;;;;5033753;28;19912;-73
2022/11/22 06:31:05;;;;;;;;;;;18.50;41.90;;;;;;5053524;28;19917;-73
2022/11/22 06:33:31;;;;;;;;;;;18.50;41.90;;;;;;5046047;28;19913;-72
2022/11/22 06:36:03;;;;;;;;;;;18.60;41.90;;;;;;5048444;28;19927;-73
2022/11/22 06:38:28;;;;;;;;;;;18.50;41.80;;;;;;5033219;28;19924;-74
2022/11/22 06:40:58;;;;;;;;;;;18.60;41.70;;;;;;5035156;28;19963;-73
2022/11/22 06:43:23;;;;;;;;;;;18.60;42.00;;;;;;5035345;28;19913;-73
2022/11/22 06:45:48;;;;;;;;;;;18.60;42.10;;;;;;5035034;28;19909;-73
2022/11/22 06:48:14;;;;;;;;;;;18.70;42.30;;;;;;5028304;28;20431;-73
2022/11/22 06:50:39;;;;;;;;;;;18.60;42.30;;;;;;5033845;28;20288;-73
2022/11/22 06:53:05;;;;;;;;;;;18.70;42.20;;;;;;5033084;28;20289;-74
2022/11/22 06:55:30;;;;;;;;;;;18.60;42.20;;;;;;5051664;28;19913;-72
2022/11/22 06:57:56;;;;;;;;;;;18.60;42.20;;;;;;5045767;28;21983;-74
2022/11/22 07:00:21;;;;;;;;;;;18.60;42.50;;;;;;5030394;28;20417;-72
2022/11/22 07:02:47;;;;;;;;;;;18.60;42.50;;;;;;5035341;28;19952;-73
2022/11/22 07:05:12;;;;;;;;;;;18.60;42.50;;;;;;5037159;28;19994;-74
2022/11/22 07:07:38;;;;;;;;;;;18.60;42.40;;;;;;5039414;28;19913;-74
2022/11/22 07:10:03;;;;;;;;;;;18.60;42.50;;;;;;5034650;28;19945;-72
2022/11/22 07:12:29;;;;;;;;;;;18.60;42.50;;;;;;5050178;28;19935;-72
2022/11/22 07:14:54;;;;;;;;;;;18.50;42.40;;;;;;5035429;28;19919;-73
2022/11/22 07:17:20;;;;;;;;;;;18.50;42.40;;;;;;5034330;28;19924;-73
2022/11/22 07:19:45;;;;;;;;;;;18.50;42.60;;;;;;5031593;28;19924;-73
2022/11/22 07:22:10;;;;;;;;;;;18.50;42.70;;;;;;5032639;28;20030;-73
2022/11/22 07:24:36;;;;;;;;;;;18.40;42.70;;;;;;5052984;28;20432;-74
2022/11/22 07:27:01;;;;;;;;;;;18.50;42.90;;;;;;5052365;28;20375;-73
2022/11/22 07:29:27;;;;;;;;;;;18.50;42.90;;;;;;5034915;28;19930;-73
2022/11/22 07:31:52;;;;;;;;;;;18.50;42.90;;;;;;5052818;28;19916;-73
2022/11/22 07:34:18;;;;;;;;;;;18.50;42.70;;;;;;5043458;28;19943;-74
2022/11/22 07:36:43;;;;;;;;;;;18.50;42.80;;;;;;5043259;28;19924;-73
2022/11/22 07:39:09;;;;;;;;;;;18.50;42.90;;;;;;5046931;28;19916;-73
2022/11/22 07:41:35;;;;;;;;;;;18.50;42.70;;;;;;5017412;28;20373;-73
2022/11/22 07:44:00;;;;;;;;;;;18.50;42.60;;;;;;5034822;28;19920;-74
2022/11/22 07:46:30;;;;;;;;;;;18.50;42.60;;;;;;5052715;28;19913;-74
2022/11/22 07:48:58;;;;;;;;;;;18.50;42.50;;;;;;5051682;28;19913;-74
2022/11/22 07:51:24;;;;;;;;;;;18.50;42.50;;;;;;5050542;28;19916;-73
2022/11/22 07:53:49;;;;;;;;;;;18.50;42.60;;;;;;5031316;28;19917;-73
2022/11/22 07:56:15;;;;;;;;;;;18.50;42.50;;;;;;5052358;28;19915;-73
2022/11/22 07:58:40;;;;;;;;;;;18.50;42.60;;;;;;5034708;28;19931;-73
2022/11/22 08:01:07;;;;;;;;;;;18.50;42.50;;;;;;5050379;28;19925;-73
2022/11/22 08:03:32;;;;;;;;;;;18.50;42.50;;;;;;5052230;28;19909;-73
2022/11/22 08:05:58;;;;;;;;;;;18.50;42.50;;;;;;5052576;28;19928;-73
2022/11/22 08:08:24;;;;;;;;;;;18.50;42.50;;;;;;5017340;28;19978;-72
2022/11/22 08:10:49;;;;;;;;;;;18.50;42.50;;;;;;5024709;28;19917;-73
2022/11/22 08:13:15;;;;;;;;;;;18.50;42.50;;;;;;5032132;28;20035;-74
2022/11/22 08:15:40;;;;;;;;;;;18.50;42.50;;;;;;5051403;28;19913;-72
2022/11/22 08:18:06;;;;;;;;;;;18.50;42.50;;;;;;5020884;28;20388;-74
2022/11/22 08:20:31;;;;;;;;;;;18.50;42.50;;;;;;5052310;28;20365;-72
2022/11/22 08:22:57;;;;;;;;;;;18.50;42.50;;;;;;5049628;28;19913;-73
2022/11/22 08:25:22;;;;;;;;;;;18.50;42.40;;;;;;5029964;28;19921;-73
2022/11/22 08:27:47;;;;;;;;;;;18.50;42.40;;;;;;5045444;28;19909;-74
2022/11/22 08:30:13;;;;;;;;;;;18.40;42.40;;;;;;5019455;28;19912;-74
2022/11/22 08:32:39;;;;;;;;;;;18.50;42.50;;;;;;5051179;28;20303;-72
2022/11/22 08:35:04;;;;;;;;;;;18.60;42.40;;;;;;5050856;28;19921;-73
2022/11/22 08:37:30;;;;;;;;;;;18.80;42.00;;;;;;5032455;28;20285;-72
2022/11/22 08:39:55;;;;;;;;;;;19.00;41.50;;;;;;5037211;28;19980;-74
2022/11/22 08:42:21;;;;;;;;;;;19.20;40.90;;;;;;5053558;28;20396;-73
2022/11/22 08:44:46;;;;;;;;;;;19.40;40.60;;;;;;5055277;28;20427;-74
2022/11/22 08:47:11;;;;;;;;;;;19.60;40.30;;;;;;5037539;28;20361;-73
2022/11/22 08:49:37;;;;;;;;;;;19.70;40.00;;;;;;5055152;28;19913;-72
2022/11/22 08:52:02;;;;;;;;;;;19.90;39.80;;;;;;5045884;28;19913;-73
2022/11/22 08:54:28;;;;;;;;;;;20.00;39.70;;;;;;5032366;28;19913;-73
2022/11/22 08:56:53;;;;;;;;;;;20.00;39.60;;;;;;5025414;28;19924;-74
2022/11/22 08:59:19;;;;;;;;;;;20.10;40.10;;;;;;5039196;28;20212;-73
2022/11/22 09:01:44;;;;;;;;;;;20.20;39.40;;;;;;5043217;28;20286;-74
2022/11/22 09:04:09;;;;;;;;;;;20.20;39.20;;;;;;5030766;28;20261;-74
2022/11/22 09:06:35;;;;;;;;;;;20.30;39.30;;;;;;5022135;28;20285;-73
2022/11/22 09:09:00;;;;;;;;;;;20.30;39.30;;;;;;5027486;28;19990;-73
2022/11/22 09:11:26;;;;;;;;;;;20.40;39.30;;;;;;5050737;28;19939;-72
2022/11/22 09:13:51;;;;;;;;;;;20.40;39.30;;;;;;5018522;28;21532;-72
2022/11/22 09:16:17;;;;;;;;;;;20.40;39.30;;;;;;5035565;28;19912;-73
2022/11/22 09:18:43;;;;;;;;;;;20.40;39.30;;;;;;5035331;28;20024;-74
2022/11/22 09:21:10;;;;;;;;;;;20.50;39.40;;;;;;5019350;28;21282;-73
2022/11/22 09:23:35;;;;;;;;;;;20.50;39.40;;;;;;5047601;28;19917;-74
2022/11/22 09:26:02;;;;;;;;;;;20.50;39.40;;;;;;5045305;28;19924;-73
2022/11/22 09:28:27;;;;;;;;;;;20.50;39.40;;;;;;5015702;28;19916;-73
2022/11/22 09:30:59;;;;;;;;;;;20.60;39.50;;;;;;5036289;28;19990;-73
2022/11/22 09:33:25;;;;;;;;;;;20.60;39.50;;;;;;5052496;28;19951;-73
2022/11/22 09:35:50;;;;;;;;;;;20.60;39.50;;;;;;5048525;28;20381;-72
2022/11/22 09:38:16;;;;;;;;;;;20.60;39.50;;;;;;5032598;28;20641;-73
2022/11/22 09:40:45;;;;;;;;;;;20.70;39.50;;;;;;5032524;28;19971;-73
2022/11/22 09:43:37;;;;;;;;;;;20.70;39.30;;;;;;5012819;28;20322;-73
2022/11/22 09:46:08;;;;;;;;;;;20.80;39.30;;;;;;5024124;28;19917;-72
2022/11/22 09:48:41;;;;;;;;;;;20.80;39.20;;;;;;5053046;28;20298;-72
2022/11/22 09:51:11;;;;;;;;;;;20.90;39.30;;;;;;5051381;28;19931;-73
2022/11/22 09:53:38;;;;;;;;;;;20.90;39.30;;;;;;5033138;28;19970;-72
2022/11/22 09:56:04;;;;;;;;;;;21.00;39.20;;;;;;5027556;28;19913;-73
2022/11/22 09:58:31;;;;;;;;;;;21.00;39.30;;;;;;5043794;28;19986;-73
2022/11/22 10:01:02;;;;;;;;;;;21.10;39.30;;;;;;5033425;28;20007;-71
2022/11/22 10:03:28;;;;;;;;;;;21.10;39.10;;;;;;5051847;28;19917;-73
2022/11/22 10:05:56;;;;;;;;;;;21.10;39.10;;;;;;5049362;28;20435;-73
2022/11/22 10:08:54;;;;;;;;;;;21.20;39.20;;;;;;5032893;28;19967;-72
2022/11/22 10:11:39;;;;;;;;;;;21.20;39.10;;;;;;4998105;28;19919;-73
2022/11/22 10:14:11;;;;;;;;;;;21.30;39.00;;;;;;5032397;28;20552;-73
2022/11/22 10:16:47;;;;;;;;;;;21.30;39.00;;;;;;5033017;28;20055;-73
2022/11/22 10:19:14;;;;;;;;;;;21.30;38.90;;;;;;5040814;28;20415;-73
2022/11/22 10:21:41;;;;;;;;;;;21.40;39.00;;;;;;5032098;28;19995;-73
2022/11/22 10:24:09;;;;;;;;;;;21.30;39.00;;;;;;5015289;28;19919;-72
2022/11/22 10:26:34;;;;;;;;;;;21.30;39.00;;;;;;5033070;28;19921;-74
2022/11/22 10:29:03;;;;;;;;;;;21.30;39.00;;;;;;5037054;28;20531;-73
2022/11/22 10:31:31;;;;;;;;;;;21.30;39.10;;;;;;5033928;28;20432;-72
2022/11/22 10:34:08;;;;;;;;;;;21.30;39.00;;;;;;5051556;28;19974;-73
2022/11/22 10:36:37;;;;;;;;;;;21.30;39.10;;;;;;5044226;28;19924;-73
2022/11/22 10:39:12;;;;;;;;;;;21.30;39.10;;;;;;5033684;28;19921;-73
2022/11/22 10:41:57;;;;;;;;;;;21.30;39.10;;;;;;5049342;28;20412;-73
2022/11/22 10:44:43;;;;;;;;;;;21.30;39.10;;;;;;5051251;28;20320;-72
2022/11/22 10:47:32;;;;;;;;;;;21.30;39.10;;;;;;5024618;28;19913;-73
2022/11/22 10:50:04;;;;;;;;;;;21.40;39.30;;;;;;5032850;28;19917;-73
2022/11/22 10:52:43;;;;;;;;;;;21.30;39.10;;;;;;5033442;28;19913;-73
2022/11/22 10:55:27;;;;;;;;;;;21.30;39.20;;;;;;5045766;28;19937;-70
2022/11/22 10:58:11;;;;;;;;;;;21.30;39.20;;;;;;5047432;28;19913;-73
2022/11/22 11:00:38;;;;;;;;;;;21.40;39.20;;;;;;5043637;28;19921;-73
2022/11/22 11:03:03;;;;;;;;;;;21.40;39.20;;;;;;5016422;28;19959;-73
2022/11/22 11:05:55;;;;;;;;;;;21.40;39.30;;;;;;5051170;28;19913;-72
2022/11/22 11:08:29;;;;;;;;;;;21.40;39.20;;;;;;5006020;28;19932;-72
2022/11/22 11:10:55;;;;;;;;;;;21.50;39.30;;;;;;5050640;28;20339;-71
2022/11/22 11:13:22;;;;;;;;;;;21.50;39.20;;;;;;5049499;28;19917;-72
2022/11/22 11:15:49;;;;;;;;;;;21.50;39.80;;;;;;5051561;28;19917;-73
2022/11/22 11:18:16;;;;;;;;;;;21.60;39.10;;;;;;5043404;28;19972;-74
2022/11/22 11:20:42;;;;;;;;;;;21.60;39.10;;;;;;5041045;28;19966;-74
2022/11/22 11:23:11;;;;;;;;;;;21.60;39.10;;;;;;5032201;28;19924;-73
2022/11/22 11:25:39;;;;;;;;;;;21.60;39.00;;;;;;5052055;28;20257;-73
2022/11/22 11:28:05;;;;;;;;;;;21.60;39.10;;;;;;5029084;28;19917;-73
2022/11/22 11:30:36;;;;;;;;;;;21.60;39.10;;;;;;5030771;28;19924;-72
2022/11/22 11:33:01;;;;;;;;;;;21.60;39.20;;;;;;5049534;28;19917;-74
2022/11/22 11:35:27;;;;;;;;;;;21.60;39.30;;;;;;5025585;28;19962;-70
2022/11/22 11:37:53;;;;;;;;;;;21.60;39.30;;;;;;5047713;28;19932;-73
2022/11/22 11:40:29;;;;;;;;;;;21.60;39.30;;;;;;5030334;28;19925;-73
2022/11/22 11:43:13;;;;;;;;;;;21.60;39.40;;;;;;5012101;28;20427;-73
2022/11/22 11:45:39;;;;;;;;;;;21.60;39.30;;;;;;5044881;28;19913;-73
2022/11/22 11:48:11;;;;;;;;;;;21.60;39.40;;;;;;5043865;28;19962;-72
2022/11/22 11:50:36;;;;;;;;;;;21.60;39.40;;;;;;5027449;28;20019;-72
2022/11/22 11:53:03;;;;;;;;;;;21.60;39.40;;;;;;5044789;28;20372;-72
2022/11/22 11:55:33;;;;;;;;;;;21.60;39.40;;;;;;5050220;28;19974;-73
2022/11/22 11:57:58;;;;;;;;;;;21.60;39.40;;;;;;5029716;28;19917;-72
2022/11/22 12:00:25;;;;;;;;;;;21.60;39.40;;;;;;5020048;28;19921;-73
2022/11/22 12:02:54;;;;;;;;;;;21.60;39.40;;;;;;5033287;28;19917;-73
2022/11/22 12:05:20;;;;;;;;;;;21.60;39.40;;;;;;5011138;28;20380;-72
2022/11/22 12:07:46;;;;;;;;;;;21.60;39.40;;;;;;5049555;28;19952;-73
2022/11/22 12:10:30;;;;;;;;;;;21.70;40.10;;;;;;5050307;28;19917;-73
2022/11/22 12:13:00;;;;;;;;;;;21.70;39.40;;;;;;5040779;28;19921;-72
2022/11/22 12:15:38;;;;;;;;;;;21.70;39.40;;;;;;5028890;28;19919;-73
2022/11/22 12:18:06;;;;;;;;;;;21.70;39.50;;;;;;5029170;28;19975;-73
2022/11/22 12:20:54;;;;;;;;;;;21.70;39.50;;;;;;5030453;28;19917;-74
2022/11/22 12:23:22;;;;;;;;;;;21.70;39.50;;;;;;4993994;28;20406;-73
2022/11/22 12:25:48;;;;;;;;;;;21.70;39.50;;;;;;5049351;28;19917;-73
2022/11/22 12:28:18;;;;;;;;;;;21.70;39.40;;;;;;5029362;28;19920;-73
2022/11/22 12:30:44;;;;;;;;;;;21.70;39.50;;;;;;5015839;28;19924;-73
2022/11/22 12:33:13;;;;;;;;;;;21.70;39.50;;;;;;5047977;28;20324;-72
2022/11/22 12:35:41;;;;;;;;;;;21.70;39.40;;;;;;5027346;28;19915;-73
2022/11/22 12:38:25;;;;;;;;;;;21.70;39.30;;;;;;5048747;28;19927;-73
2022/11/22 12:40:52;;;;;;;;;;;21.70;39.30;;;;;;5032674;28;19916;-72
2022/11/22 12:43:41;;;;;;;;;;;21.70;39.30;;;;;;5044268;28;19948;-73
2022/11/22 12:46:29;;;;;;;;;;;21.70;39.40;;;;;;5028282;28;19913;-73
2022/11/22 12:48:59;;;;;;;;;;;21.80;39.50;;;;;;5044916;28;19921;-71
2022/11/22 12:51:26;;;;;;;;;;;21.70;39.50;;;;;;5050227;28;20366;-72
2022/11/22 12:53:53;;;;;;;;;;;21.80;39.40;;;;;;5030404;28;19923;-72
2022/11/22 12:56:22;;;;;;;;;;;21.80;39.40;;;;;;5027527;28;19913;-73
2022/11/22 12:59:01;;;;;;;;;;;21.80;39.40;;;;;;5031403;28;19971;-72
2022/11/22 13:01:35;;;;;;;;;;;21.80;39.50;;;;;;5030523;28;19916;-72
2022/11/22 13:04:02;;;;;;;;;;;21.80;39.40;;;;;;5043026;28;19919;-73
2022/11/22 13:06:31;;;;;;;;;;;21.80;39.40;;;;;;5031239;28;20365;-72
2022/11/22 13:09:01;;;;;;;;;;;21.80;39.40;;;;;;5029434;28;19916;-72
2022/11/22 13:11:41;;;;;;;;;;;21.80;39.50;;;;;;5031079;28;20008;-73
2022/11/22 13:14:11;;;;;;;;;;;21.80;39.50;;;;;;5029084;28;20448;-73
2022/11/22 13:16:37;;;;;;;;;;;21.80;39.50;;;;;;5028300;28;19921;-73
2022/11/22 13:19:05;;;;;;;;;;;21.80;39.50;;;;;;5044181;28;20384;-72
2022/11/22 13:21:46;;;;;;;;;;;21.80;39.50;;;;;;5046634;28;20427;-73
2022/11/22 13:24:18;;;;;;;;;;;21.80;39.50;;;;;;5048596;28;19970;-72
2022/11/22 13:27:02;;;;;;;;;;;21.80;39.50;;;;;;5033628;28;20003;-70
2022/11/22 13:29:27;;;;;;;;;;;21.80;39.50;;;;;;5051174;28;19916;-73
2022/11/22 13:32:25;;;;;;;;;;;21.80;39.50;;;;;;5018054;28;19927;-73
2022/11/22 13:35:06;;;;;;;;;;;21.80;39.40;;;;;;5004495;28;19920;-73
2022/11/22 13:37:58;;;;;;;;;;;21.90;39.50;;;;;;5048888;28;20369;-72
2022/11/22 13:40:27;;;;;;;;;;;21.90;39.50;;;;;;5043898;28;19920;-73
2022/11/22 13:43:13;;;;;;;;;;;21.90;39.40;;;;;;5047699;28;20365;-72
2022/11/22 13:45:45;;;;;;;;;;;21.90;39.40;;;;;;4993434;28;19916;-73
2022/11/22 13:48:10;;;;;;;;;;;21.90;39.40;;;;;;5030001;28;19923;-73
2022/11/22 13:50:38;;;;;;;;;;;21.90;39.50;;;;;;5054270;28;19913;-73
2022/11/22 13:53:20;;;;;;;;;;;21.90;39.40;;;;;;5052046;28;20460;-73
2022/11/22 13:55:46;;;;;;;;;;;21.90;39.40;;;;;;5034433;28;19912;-71
2022/11/22 13:58:35;;;;;;;;;;;22.00;39.50;;;;;;5030170;28;19931;-74
2022/11/22 14:01:00;;;;;;;;;;;22.00;39.40;;;;;;5035918;28;19990;-73
2022/11/22 14:03:28;;;;;;;;;;;22.00;39.50;;;;;;5048494;28;19913;-72
2022/11/22 14:05:54;;;;;;;;;;;21.90;39.40;;;;;;5035351;28;19917;-72
2022/11/22 14:08:25;;;;;;;;;;;21.90;39.40;;;;;;5031705;28;20274;-72
2022/11/22 14:10:51;;;;;;;;;;;21.90;39.40;;;;;;5032739;28;19920;-71
2022/11/22 14:13:23;;;;;;;;;;;22.00;39.40;;;;;;5044612;28;20300;-72
2022/11/22 14:15:56;;;;;;;;;;;21.90;39.40;;;;;;5035834;28;19909;-73
2022/11/22 14:18:31;;;;;;;;;;;21.90;39.60;;;;;;5050133;28;19920;-73
2022/11/22 14:21:03;;;;;;;;;;;22.00;39.70;;;;;;5041462;28;19921;-72
2022/11/22 14:23:41;;;;;;;;;;;22.00;39.60;;;;;;5029555;28;19967;-72
2022/11/22 14:26:12;;;;;;;;;;;22.00;39.60;;;;;;5051611;28;19952;-73
2022/11/22 14:28:40;;;;;;;;;;;22.00;39.60;;;;;;5053179;28;19913;-74
2022/11/22 14:31:13;;;;;;;;;;;22.10;39.60;;;;;;5052783;28;20284;-72
2022/11/22 14:33:58;;;;;;;;;;;22.10;39.60;;;;;;5049989;28;19967;-73
2022/11/22 14:36:24;;;;;;;;;;;22.10;39.50;;;;;;5048762;28;19909;-72